Aviation Digital Data Service (ADDS)

Output produced by METARs form (0644 UTC 30 March 2017)
found at http://aviationweather.gov/adds/metars/
 
KROC 300520Z 3006/3106 07004KT P6SM BKN150 
     FM301400 08008KT P6SM OVC100 
     FM302000 08010KT P6SM -RA OVC040 
     FM302300 09010KT 6SM -SHRA OVC015 
     FM310300 09012KT 3SM -RA BR OVC007